North Platte, NE (69101)

6:06 PM CDT on August 30, 2016 (GMT -0500)
K0KDC North Platte | | Change Station

Elev 2808 ft 41.14 °N, 100.77 °W | Updated 1 minute ago

Partly Cloudy
Partly Cloudy
77.5 °F
Feels Like 79 °F
N
3.0
Wind Variable Wind from ESE
Gusts 6.0 mph

Today
High -- | Low -- °F
--% Chance of Precip.
Yesterday
High -- | Low -- °F
Precip. -- in
Pressure 30.13 in
Visibility 10.0 miles
Clouds Few 12000 ft
Heat Index 79 °F
Dew Point 65 °F
Humidity 65%
Rainfall 0.00 in
Snow Depth Not available.
7:08 AM 8:18 PM
Waning Crescent, 2% visible
METAR KLBF 302253Z AUTO 11008KT 10SM FEW120 26/18 A3020 RMK AO2 SLP202 T02560178
Pressure 30.13 in
Visibility 10.0 miles
Clouds Few 12000 ft
Heat Index 79 °F
Dew Point 65 °F
Humidity 65%
Rainfall 0.00 in
Snow Depth Not available.
7:08 AM 8:18 PM
Waning Crescent, 2% visible
METAR KLBF 302253Z AUTO 11008KT 10SM FEW120 26/18 A3020 RMK AO2 SLP202 T02560178

10-Day Weather Forecast

Almanac

Astronomy

Aug. 30, 2016 Rise Set
Actual Time
Civil Twilight
Nautical Twilight
Astronomical Twilight
Moon
Length of Visible Light
Length of Day
Tomorrow will be .
, % of the Moon is Illuminated

Today's Extremes

State Highs State Lows

Community

WunderPhotos

Upload Photos

1,935,920 photos uploaded!

WunderBlog® & News

Nearby

Air Quality

  Air Quality AQ Index Pollutant
Not available.

Snow Depth

Station Depth Elevation

Earthquake Activity

City Distance Mag. Time & Date
Minimum magnitude displayed is 2.5.

Coastal Water Temperatures

Place Temperature

Stations

Nearby Weather Stations

Station Location Temp. Windchill Dew Point Humidity Wind Precip. Elev Updated Type
                   

Watches & Warnings

There are currently no watches in effect.